sensor_id;sensor_type;location;lat;lon;timestamp;P1;durP1;ratioP1;P2;durP2;ratioP2
58697;SDS011;44475;53.206;-6.106;2024-01-07T00:00:36;3.85;;;2.60;;
58697;SDS011;44475;53.206;-6.106;2024-01-07T00:03:03;4.22;;;2.70;;
58697;SDS011;44475;53.206;-6.106;2024-01-07T00:05:30;4.32;;;2.40;;
58697;SDS011;44475;53.206;-6.106;2024-01-07T00:07:56;5.05;;;2.60;;
58697;SDS011;44475;53.206;-6.106;2024-01-07T00:10:22;3.45;;;2.30;;
58697;SDS011;44475;53.206;-6.106;2024-01-07T00:12:49;4.35;;;2.50;;
58697;SDS011;44475;53.206;-6.106;2024-01-07T00:15:17;4.25;;;2.45;;
58697;SDS011;44475;53.206;-6.106;2024-01-07T00:17:44;3.53;;;2.40;;
58697;SDS011;44475;53.206;-6.106;2024-01-07T00:20:10;3.75;;;2.35;;
58697;SDS011;44475;53.206;-6.106;2024-01-07T00:22:37;4.45;;;2.60;;
58697;SDS011;44475;53.206;-6.106;2024-01-07T00:25:04;5.63;;;2.40;;
58697;SDS011;44475;53.206;-6.106;2024-01-07T00:27:31;9.13;;;2.30;;
58697;SDS011;44475;53.206;-6.106;2024-01-07T00:29:57;5.32;;;2.50;;
58697;SDS011;44475;53.206;-6.106;2024-01-07T00:32:24;7.90;;;2.30;;
58697;SDS011;44475;53.206;-6.106;2024-01-07T00:34:51;5.13;;;2.72;;
58697;SDS011;44475;53.206;-6.106;2024-01-07T00:37:18;11.13;;;2.50;;
58697;SDS011;44475;53.206;-6.106;2024-01-07T00:39:45;20.67;;;2.97;;
58697;SDS011;44475;53.206;-6.106;2024-01-07T00:42:12;13.88;;;2.30;;
58697;SDS011;44475;53.206;-6.106;2024-01-07T00:44:39;22.60;;;3.00;;
58697;SDS011;44475;53.206;-6.106;2024-01-07T00:47:06;15.32;;;2.50;;
58697;SDS011;44475;53.206;-6.106;2024-01-07T00:49:32;16.50;;;2.70;;
58697;SDS011;44475;53.206;-6.106;2024-01-07T00:51:59;9.35;;;2.60;;
58697;SDS011;44475;53.206;-6.106;2024-01-07T00:54:27;7.13;;;2.30;;
58697;SDS011;44475;53.206;-6.106;2024-01-07T00:56:54;5.18;;;2.17;;
58697;SDS011;44475;53.206;-6.106;2024-01-07T00:59:21;4.90;;;2.35;;
58697;SDS011;44475;53.206;-6.106;2024-01-07T01:01:47;3.88;;;2.22;;
58697;SDS011;44475;53.206;-6.106;2024-01-07T01:04:13;6.03;;;2.33;;
58697;SDS011;44475;53.206;-6.106;2024-01-07T01:06:40;3.67;;;2.10;;
58697;SDS011;44475;53.206;-6.106;2024-01-07T01:09:07;4.03;;;2.20;;
58697;SDS011;44475;53.206;-6.106;2024-01-07T01:11:33;5.00;;;2.28;;
58697;SDS011;44475;53.206;-6.106;2024-01-07T01:14:00;6.47;;;1.95;;
58697;SDS011;44475;53.206;-6.106;2024-01-07T01:16:27;7.28;;;2.17;;
58697;SDS011;44475;53.206;-6.106;2024-01-07T01:18:53;6.28;;;2.30;;
58697;SDS011;44475;53.206;-6.106;2024-01-07T01:21:20;3.45;;;2.15;;
58697;SDS011;44475;53.206;-6.106;2024-01-07T01:23:48;5.78;;;2.13;;
58697;SDS011;44475;53.206;-6.106;2024-01-07T01:26:16;8.32;;;2.30;;
58697;SDS011;44475;53.206;-6.106;2024-01-07T01:31:17;4.05;;;2.00;;
58697;SDS011;44475;53.206;-6.106;2024-01-07T01:33:50;2.80;;;1.95;;
58697;SDS011;44475;53.206;-6.106;2024-01-07T01:36:31;3.30;;;2.05;;
58697;SDS011;44475;53.206;-6.106;2024-01-07T01:39:03;3.35;;;2.00;;
58697;SDS011;44475;53.206;-6.106;2024-01-07T01:41:43;3.65;;;2.20;;
58697;SDS011;44475;53.206;-6.106;2024-01-07T01:44:10;3.90;;;2.20;;
58697;SDS011;44475;53.206;-6.106;2024-01-07T01:46:39;3.15;;;1.90;;
58697;SDS011;44475;53.206;-6.106;2024-01-07T01:49:13;4.90;;;2.10;;
58697;SDS011;44475;53.206;-6.106;2024-01-07T01:51:41;4.40;;;2.28;;
58697;SDS011;44475;53.206;-6.106;2024-01-07T01:54:08;4.65;;;2.13;;
58697;SDS011;44475;53.206;-6.106;2024-01-07T01:56:35;3.60;;;2.10;;
58697;SDS011;44475;53.206;-6.106;2024-01-07T01:59:02;3.28;;;2.10;;
58697;SDS011;44475;53.206;-6.106;2024-01-07T02:01:28;3.35;;;2.10;;
58697;SDS011;44475;53.206;-6.106;2024-01-07T02:03:57;5.45;;;2.20;;
58697;SDS011;44475;53.206;-6.106;2024-01-07T02:06:23;4.18;;;2.10;;
58697;SDS011;44475;53.206;-6.106;2024-01-07T02:08:51;5.13;;;2.10;;
58697;SDS011;44475;53.206;-6.106;2024-01-07T02:11:19;8.65;;;2.30;;
58697;SDS011;44475;53.206;-6.106;2024-01-07T02:13:47;4.30;;;2.00;;
58697;SDS011;44475;53.206;-6.106;2024-01-07T02:16:15;5.05;;;1.98;;
58697;SDS011;44475;53.206;-6.106;2024-01-07T02:18:42;5.50;;;2.20;;
58697;SDS011;44475;53.206;-6.106;2024-01-07T02:21:10;3.17;;;2.00;;
58697;SDS011;44475;53.206;-6.106;2024-01-07T02:23:41;3.25;;;2.05;;
58697;SDS011;44475;53.206;-6.106;2024-01-07T02:26:07;3.78;;;2.05;;
58697;SDS011;44475;53.206;-6.106;2024-01-07T02:28:35;2.65;;;1.80;;
58697;SDS011;44475;53.206;-6.106;2024-01-07T02:31:02;4.90;;;2.20;;
58697;SDS011;44475;53.206;-6.106;2024-01-07T02:33:28;2.97;;;1.98;;
58697;SDS011;44475;53.206;-6.106;2024-01-07T02:35:56;3.25;;;2.00;;
58697;SDS011;44475;53.206;-6.106;2024-01-07T02:38:23;4.20;;;2.17;;
58697;SDS011;44475;53.206;-6.106;2024-01-07T02:40:50;3.72;;;1.98;;
58697;SDS011;44475;53.206;-6.106;2024-01-07T02:43:17;3.17;;;1.90;;
58697;SDS011;44475;53.206;-6.106;2024-01-07T02:45:43;3.35;;;1.90;;
58697;SDS011;44475;53.206;-6.106;2024-01-07T02:48:10;3.05;;;2.05;;
58697;SDS011;44475;53.206;-6.106;2024-01-07T02:50:36;3.30;;;1.98;;
58697;SDS011;44475;53.206;-6.106;2024-01-07T02:53:03;5.15;;;2.00;;
58697;SDS011;44475;53.206;-6.106;2024-01-07T02:55:30;3.60;;;2.10;;
58697;SDS011;44475;53.206;-6.106;2024-01-07T02:57:57;3.47;;;1.98;;
58697;SDS011;44475;53.206;-6.106;2024-01-07T03:00:23;3.95;;;2.13;;
58697;SDS011;44475;53.206;-6.106;2024-01-07T03:02:50;5.20;;;1.90;;
58697;SDS011;44475;53.206;-6.106;2024-01-07T03:05:18;4.13;;;2.22;;
58697;SDS011;44475;53.206;-6.106;2024-01-07T03:07:45;2.97;;;1.85;;
58697;SDS011;44475;53.206;-6.106;2024-01-07T03:10:12;2.70;;;1.80;;
58697;SDS011;44475;53.206;-6.106;2024-01-07T03:12:38;2.90;;;2.00;;
58697;SDS011;44475;53.206;-6.106;2024-01-07T03:15:05;3.15;;;2.00;;
58697;SDS011;44475;53.206;-6.106;2024-01-07T03:17:34;2.58;;;1.80;;
58697;SDS011;44475;53.206;-6.106;2024-01-07T03:20:01;3.33;;;2.05;;
58697;SDS011;44475;53.206;-6.106;2024-01-07T03:22:28;4.00;;;2.00;;
58697;SDS011;44475;53.206;-6.106;2024-01-07T03:24:55;3.35;;;1.90;;
58697;SDS011;44475;53.206;-6.106;2024-01-07T03:27:22;3.67;;;2.13;;
58697;SDS011;44475;53.206;-6.106;2024-01-07T03:29:48;6.68;;;2.00;;
58697;SDS011;44475;53.206;-6.106;2024-01-07T03:32:15;3.45;;;1.88;;
58697;SDS011;44475;53.206;-6.106;2024-01-07T03:34:42;2.60;;;1.80;;
58697;SDS011;44475;53.206;-6.106;2024-01-07T03:37:09;5.32;;;1.90;;
58697;SDS011;44475;53.206;-6.106;2024-01-07T03:39:36;3.70;;;2.03;;
58697;SDS011;44475;53.206;-6.106;2024-01-07T03:42:02;3.25;;;1.98;;
58697;SDS011;44475;53.206;-6.106;2024-01-07T03:44:31;2.58;;;1.80;;
58697;SDS011;44475;53.206;-6.106;2024-01-07T03:46:58;5.57;;;2.10;;
58697;SDS011;44475;53.206;-6.106;2024-01-07T03:49:25;3.58;;;2.08;;
58697;SDS011;44475;53.206;-6.106;2024-01-07T03:51:52;3.60;;;2.10;;
58697;SDS011;44475;53.206;-6.106;2024-01-07T03:54:19;3.13;;;1.90;;
58697;SDS011;44475;53.206;-6.106;2024-01-07T03:56:45;3.35;;;1.92;;
58697;SDS011;44475;53.206;-6.106;2024-01-07T03:59:12;3.25;;;2.00;;
58697;SDS011;44475;53.206;-6.106;2024-01-07T04:01:39;3.35;;;2.03;;
58697;SDS011;44475;53.206;-6.106;2024-01-07T04:04:06;3.40;;;1.90;;
58697;SDS011;44475;53.206;-6.106;2024-01-07T04:06:32;3.15;;;1.80;;
58697;SDS011;44475;53.206;-6.106;2024-01-07T04:08:59;2.90;;;2.00;;
58697;SDS011;44475;53.206;-6.106;2024-01-07T04:11:29;2.83;;;1.90;;
58697;SDS011;44475;53.206;-6.106;2024-01-07T04:13:56;3.65;;;2.03;;
58697;SDS011;44475;53.206;-6.106;2024-01-07T04:16:22;2.85;;;1.80;;
58697;SDS011;44475;53.206;-6.106;2024-01-07T04:18:50;3.20;;;1.80;;
58697;SDS011;44475;53.206;-6.106;2024-01-07T04:21:17;3.65;;;1.90;;
58697;SDS011;44475;53.206;-6.106;2024-01-07T04:23:45;2.97;;;1.90;;
58697;SDS011;44475;53.206;-6.106;2024-01-07T04:26:11;3.53;;;1.83;;
58697;SDS011;44475;53.206;-6.106;2024-01-07T04:28:40;3.88;;;1.95;;
58697;SDS011;44475;53.206;-6.106;2024-01-07T04:31:08;4.35;;;1.90;;
58697;SDS011;44475;53.206;-6.106;2024-01-07T04:33:35;3.58;;;1.90;;
58697;SDS011;44475;53.206;-6.106;2024-01-07T04:36:03;3.33;;;1.90;;
58697;SDS011;44475;53.206;-6.106;2024-01-07T04:38:30;2.85;;;2.00;;
58697;SDS011;44475;53.206;-6.106;2024-01-07T04:40:57;3.22;;;1.80;;
58697;SDS011;44475;53.206;-6.106;2024-01-07T04:43:24;3.20;;;1.67;;
58697;SDS011;44475;53.206;-6.106;2024-01-07T04:45:51;4.40;;;1.90;;
58697;SDS011;44475;53.206;-6.106;2024-01-07T04:48:18;3.30;;;1.90;;
58697;SDS011;44475;53.206;-6.106;2024-01-07T04:50:45;3.65;;;1.80;;
58697;SDS011;44475;53.206;-6.106;2024-01-07T04:53:12;2.78;;;1.80;;
58697;SDS011;44475;53.206;-6.106;2024-01-07T04:55:39;3.83;;;1.90;;
58697;SDS011;44475;53.206;-6.106;2024-01-07T04:58:06;2.53;;;1.70;;
58697;SDS011;44475;53.206;-6.106;2024-01-07T05:00:32;3.22;;;1.90;;
58697;SDS011;44475;53.206;-6.106;2024-01-07T05:03:00;3.58;;;1.90;;
58697;SDS011;44475;53.206;-6.106;2024-01-07T05:05:27;3.05;;;1.90;;
58697;SDS011;44475;53.206;-6.106;2024-01-07T05:07:54;2.47;;;1.80;;
58697;SDS011;44475;53.206;-6.106;2024-01-07T05:10:21;3.13;;;1.88;;
58697;SDS011;44475;53.206;-6.106;2024-01-07T05:12:47;3.22;;;1.95;;
58697;SDS011;44475;53.206;-6.106;2024-01-07T05:15:14;2.97;;;1.80;;
58697;SDS011;44475;53.206;-6.106;2024-01-07T05:17:40;2.90;;;1.90;;
58697;SDS011;44475;53.206;-6.106;2024-01-07T05:20:08;3.60;;;1.90;;
58697;SDS011;44475;53.206;-6.106;2024-01-07T05:22:35;4.30;;;1.90;;
58697;SDS011;44475;53.206;-6.106;2024-01-07T05:25:01;3.53;;;1.80;;
58697;SDS011;44475;53.206;-6.106;2024-01-07T05:27:28;2.72;;;1.77;;
58697;SDS011;44475;53.206;-6.106;2024-01-07T05:29:55;2.70;;;1.67;;
58697;SDS011;44475;53.206;-6.106;2024-01-07T05:32:21;2.85;;;1.73;;
58697;SDS011;44475;53.206;-6.106;2024-01-07T05:34:48;4.03;;;2.08;;
58697;SDS011;44475;53.206;-6.106;2024-01-07T05:37:15;3.45;;;1.90;;
58697;SDS011;44475;53.206;-6.106;2024-01-07T05:39:42;2.72;;;1.90;;
58697;SDS011;44475;53.206;-6.106;2024-01-07T05:42:09;2.75;;;1.70;;
58697;SDS011;44475;53.206;-6.106;2024-01-07T05:44:37;2.50;;;1.70;;
58697;SDS011;44475;53.206;-6.106;2024-01-07T05:47:05;2.83;;;1.80;;
58697;SDS011;44475;53.206;-6.106;2024-01-07T05:49:32;2.63;;;1.70;;
58697;SDS011;44475;53.206;-6.106;2024-01-07T05:51:59;2.75;;;1.98;;
58697;SDS011;44475;53.206;-6.106;2024-01-07T05:54:26;3.40;;;1.75;;
58697;SDS011;44475;53.206;-6.106;2024-01-07T05:56:52;2.55;;;1.67;;
58697;SDS011;44475;53.206;-6.106;2024-01-07T05:59:19;2.28;;;1.70;;
58697;SDS011;44475;53.206;-6.106;2024-01-07T06:01:46;3.33;;;1.70;;
58697;SDS011;44475;53.206;-6.106;2024-01-07T06:04:12;2.40;;;1.70;;
58697;SDS011;44475;53.206;-6.106;2024-01-07T06:06:39;3.20;;;1.73;;
58697;SDS011;44475;53.206;-6.106;2024-01-07T06:09:06;3.65;;;1.60;;
58697;SDS011;44475;53.206;-6.106;2024-01-07T06:11:32;3.47;;;1.73;;
58697;SDS011;44475;53.206;-6.106;2024-01-07T06:13:59;2.92;;;1.70;;
58697;SDS011;44475;53.206;-6.106;2024-01-07T06:16:26;2.08;;;1.52;;
58697;SDS011;44475;53.206;-6.106;2024-01-07T06:18:55;2.53;;;1.70;;
58697;SDS011;44475;53.206;-6.106;2024-01-07T06:21:22;5.10;;;1.85;;
58697;SDS011;44475;53.206;-6.106;2024-01-07T06:23:48;4.50;;;1.80;;
58697;SDS011;44475;53.206;-6.106;2024-01-07T06:26:15;4.03;;;1.60;;
58697;SDS011;44475;53.206;-6.106;2024-01-07T06:28:42;2.90;;;1.67;;
58697;SDS011;44475;53.206;-6.106;2024-01-07T06:31:09;3.80;;;1.80;;
58697;SDS011;44475;53.206;-6.106;2024-01-07T06:33:36;2.63;;;1.60;;
58697;SDS011;44475;53.206;-6.106;2024-01-07T06:36:03;2.53;;;1.65;;
58697;SDS011;44475;53.206;-6.106;2024-01-07T06:38:30;2.25;;;1.60;;
58697;SDS011;44475;53.206;-6.106;2024-01-07T06:40:57;2.42;;;1.60;;
58697;SDS011;44475;53.206;-6.106;2024-01-07T06:43:30;2.38;;;1.80;;
58697;SDS011;44475;53.206;-6.106;2024-01-07T06:45:57;1.95;;;1.55;;
58697;SDS011;44475;53.206;-6.106;2024-01-07T06:48:23;2.63;;;1.60;;
58697;SDS011;44475;53.206;-6.106;2024-01-07T06:50:50;2.40;;;1.63;;
58697;SDS011;44475;53.206;-6.106;2024-01-07T06:53:17;2.53;;;1.77;;
58697;SDS011;44475;53.206;-6.106;2024-01-07T06:55:44;2.50;;;1.65;;
58697;SDS011;44475;53.206;-6.106;2024-01-07T06:58:10;3.53;;;1.80;;
58697;SDS011;44475;53.206;-6.106;2024-01-07T07:00:38;2.35;;;1.63;;
58697;SDS011;44475;53.206;-6.106;2024-01-07T07:03:06;2.90;;;1.70;;
58697;SDS011;44475;53.206;-6.106;2024-01-07T07:05:33;3.95;;;1.63;;
58697;SDS011;44475;53.206;-6.106;2024-01-07T07:07:59;2.38;;;1.65;;
58697;SDS011;44475;53.206;-6.106;2024-01-07T07:10:27;2.47;;;1.70;;
58697;SDS011;44475;53.206;-6.106;2024-01-07T07:12:54;2.50;;;1.63;;
58697;SDS011;44475;53.206;-6.106;2024-01-07T07:15:20;2.50;;;1.70;;
58697;SDS011;44475;53.206;-6.106;2024-01-07T07:17:47;2.67;;;1.70;;
58697;SDS011;44475;53.206;-6.106;2024-01-07T07:20:14;3.03;;;1.77;;
58697;SDS011;44475;53.206;-6.106;2024-01-07T07:22:40;2.30;;;1.50;;
58697;SDS011;44475;53.206;-6.106;2024-01-07T07:25:07;3.72;;;1.90;;
58697;SDS011;44475;53.206;-6.106;2024-01-07T07:27:33;3.15;;;1.73;;
58697;SDS011;44475;53.206;-6.106;2024-01-07T07:30:00;2.15;;;1.67;;
58697;SDS011;44475;53.206;-6.106;2024-01-07T07:32:27;2.13;;;1.60;;
58697;SDS011;44475;53.206;-6.106;2024-01-07T07:34:55;3.50;;;1.60;;
58697;SDS011;44475;53.206;-6.106;2024-01-07T07:37:23;2.20;;;1.60;;
58697;SDS011;44475;53.206;-6.106;2024-01-07T07:39:51;2.53;;;1.80;;
58697;SDS011;44475;53.206;-6.106;2024-01-07T07:42:18;2.53;;;1.70;;
58697;SDS011;44475;53.206;-6.106;2024-01-07T07:44:45;2.05;;;1.60;;
58697;SDS011;44475;53.206;-6.106;2024-01-07T07:47:14;2.53;;;1.80;;
58697;SDS011;44475;53.206;-6.106;2024-01-07T07:49:41;3.25;;;1.70;;
58697;SDS011;44475;53.206;-6.106;2024-01-07T07:52:10;3.33;;;1.80;;
58697;SDS011;44475;53.206;-6.106;2024-01-07T07:54:39;2.38;;;1.70;;
58697;SDS011;44475;53.206;-6.106;2024-01-07T07:57:06;2.40;;;1.60;;
58697;SDS011;44475;53.206;-6.106;2024-01-07T07:59:32;4.22;;;1.70;;
58697;SDS011;44475;53.206;-6.106;2024-01-07T08:01:59;3.08;;;1.70;;
58697;SDS011;44475;53.206;-6.106;2024-01-07T08:04:25;2.92;;;1.60;;
58697;SDS011;44475;53.206;-6.106;2024-01-07T08:06:52;2.13;;;1.60;;
58697;SDS011;44475;53.206;-6.106;2024-01-07T08:09:19;2.45;;;1.65;;
58697;SDS011;44475;53.206;-6.106;2024-01-07T08:11:45;3.17;;;1.75;;
58697;SDS011;44475;53.206;-6.106;2024-01-07T08:14:13;3.83;;;1.92;;
58697;SDS011;44475;53.206;-6.106;2024-01-07T08:16:39;2.72;;;1.70;;
58697;SDS011;44475;53.206;-6.106;2024-01-07T08:19:06;3.33;;;1.80;;
58697;SDS011;44475;53.206;-6.106;2024-01-07T08:21:33;3.95;;;1.60;;
58697;SDS011;44475;53.206;-6.106;2024-01-07T08:24:00;2.72;;;1.67;;
58697;SDS011;44475;53.206;-6.106;2024-01-07T08:26:29;3.70;;;1.70;;
58697;SDS011;44475;53.206;-6.106;2024-01-07T08:28:57;3.45;;;1.70;;
58697;SDS011;44475;53.206;-6.106;2024-01-07T08:31:24;3.78;;;1.70;;
58697;SDS011;44475;53.206;-6.106;2024-01-07T08:33:52;2.58;;;1.70;;
58697;SDS011;44475;53.206;-6.106;2024-01-07T08:36:19;2.65;;;1.73;;
58697;SDS011;44475;53.206;-6.106;2024-01-07T08:38:46;2.95;;;1.80;;
58697;SDS011;44475;53.206;-6.106;2024-01-07T08:41:16;13.38;;;2.03;;
58697;SDS011;44475;53.206;-6.106;2024-01-07T08:43:43;4.72;;;1.60;;
58697;SDS011;44475;53.206;-6.106;2024-01-07T08:46:12;3.95;;;1.60;;
58697;SDS011;44475;53.206;-6.106;2024-01-07T08:48:40;3.70;;;1.70;;
58697;SDS011;44475;53.206;-6.106;2024-01-07T08:51:07;1.77;;;1.55;;
58697;SDS011;44475;53.206;-6.106;2024-01-07T08:53:34;2.85;;;1.60;;
58697;SDS011;44475;53.206;-6.106;2024-01-07T08:56:04;2.60;;;1.70;;
58697;SDS011;44475;53.206;-6.106;2024-01-07T08:58:32;3.45;;;1.70;;
58697;SDS011;44475;53.206;-6.106;2024-01-07T09:01:00;2.17;;;1.60;;
58697;SDS011;44475;53.206;-6.106;2024-01-07T09:03:27;5.22;;;1.60;;
58697;SDS011;44475;53.206;-6.106;2024-01-07T09:05:55;3.30;;;1.80;;
58697;SDS011;44475;53.206;-6.106;2024-01-07T09:08:22;4.55;;;1.98;;
58697;SDS011;44475;53.206;-6.106;2024-01-07T09:10:49;2.20;;;1.70;;
58697;SDS011;44475;53.206;-6.106;2024-01-07T09:13:16;4.47;;;1.75;;
58697;SDS011;44475;53.206;-6.106;2024-01-07T09:15:45;3.67;;;1.90;;
58697;SDS011;44475;53.206;-6.106;2024-01-07T09:18:12;3.17;;;1.75;;
58697;SDS011;44475;53.206;-6.106;2024-01-07T09:20:40;2.35;;;1.70;;
58697;SDS011;44475;53.206;-6.106;2024-01-07T09:23:07;2.92;;;1.80;;
58697;SDS011;44475;53.206;-6.106;2024-01-07T09:25:33;5.78;;;1.98;;
58697;SDS011;44475;53.206;-6.106;2024-01-07T09:27:59;3.03;;;1.80;;
58697;SDS011;44475;53.206;-6.106;2024-01-07T09:30:26;3.00;;;1.73;;
58697;SDS011;44475;53.206;-6.106;2024-01-07T09:32:52;2.67;;;1.67;;
58697;SDS011;44475;53.206;-6.106;2024-01-07T09:35:18;3.25;;;1.90;;
58697;SDS011;44475;53.206;-6.106;2024-01-07T09:37:45;2.83;;;1.80;;
58697;SDS011;44475;53.206;-6.106;2024-01-07T09:40:11;3.08;;;1.90;;
58697;SDS011;44475;53.206;-6.106;2024-01-07T09:42:43;3.10;;;1.85;;
58697;SDS011;44475;53.206;-6.106;2024-01-07T09:45:12;3.65;;;2.00;;
58697;SDS011;44475;53.206;-6.106;2024-01-07T09:47:43;5.93;;;1.90;;
58697;SDS011;44475;53.206;-6.106;2024-01-07T09:50:17;3.17;;;1.90;;
58697;SDS011;44475;53.206;-6.106;2024-01-07T09:53:01;7.95;;;1.90;;
58697;SDS011;44475;53.206;-6.106;2024-01-07T09:55:35;3.08;;;2.00;;
58697;SDS011;44475;53.206;-6.106;2024-01-07T09:58:19;2.92;;;1.98;;
58697;SDS011;44475;53.206;-6.106;2024-01-07T10:00:46;3.30;;;2.22;;
58697;SDS011;44475;53.206;-6.106;2024-01-07T10:03:13;3.20;;;1.98;;
58697;SDS011;44475;53.206;-6.106;2024-01-07T10:05:40;3.97;;;2.20;;
58697;SDS011;44475;53.206;-6.106;2024-01-07T10:08:07;14.02;;;2.47;;
58697;SDS011;44475;53.206;-6.106;2024-01-07T10:10:34;4.18;;;2.38;;
58697;SDS011;44475;53.206;-6.106;2024-01-07T10:13:02;9.07;;;2.30;;
58697;SDS011;44475;53.206;-6.106;2024-01-07T10:15:31;11.00;;;2.55;;
58697;SDS011;44475;53.206;-6.106;2024-01-07T10:18:04;7.22;;;2.30;;
58697;SDS011;44475;53.206;-6.106;2024-01-07T10:20:32;7.43;;;2.50;;
58697;SDS011;44475;53.206;-6.106;2024-01-07T10:23:01;9.63;;;2.60;;
58697;SDS011;44475;53.206;-6.106;2024-01-07T10:25:33;5.72;;;2.53;;
58697;SDS011;44475;53.206;-6.106;2024-01-07T10:28:01;5.03;;;2.42;;
58697;SDS011;44475;53.206;-6.106;2024-01-07T10:30:28;8.27;;;2.30;;
58697;SDS011;44475;53.206;-6.106;2024-01-07T10:32:56;6.15;;;2.50;;
58697;SDS011;44475;53.206;-6.106;2024-01-07T10:35:29;8.80;;;2.40;;
58697;SDS011;44475;53.206;-6.106;2024-01-07T10:37:59;7.75;;;2.53;;
58697;SDS011;44475;53.206;-6.106;2024-01-07T10:40:27;11.40;;;2.70;;
58697;SDS011;44475;53.206;-6.106;2024-01-07T10:42:55;9.63;;;2.88;;
58697;SDS011;44475;53.206;-6.106;2024-01-07T10:45:22;7.93;;;2.70;;
58697;SDS011;44475;53.206;-6.106;2024-01-07T10:47:49;8.32;;;2.50;;
58697;SDS011;44475;53.206;-6.106;2024-01-07T10:50:24;10.55;;;2.80;;
58697;SDS011;44475;53.206;-6.106;2024-01-07T10:52:57;8.20;;;2.95;;
58697;SDS011;44475;53.206;-6.106;2024-01-07T10:58:31;7.70;;;2.80;;
58697;SDS011;44475;53.206;-6.106;2024-01-07T11:04:32;6.35;;;3.00;;
58697;SDS011;44475;53.206;-6.106;2024-01-07T11:11:52;6.60;;;3.10;;
58697;SDS011;44475;53.206;-6.106;2024-01-07T11:17:11;6.90;;;3.15;;
58697;SDS011;44475;53.206;-6.106;2024-01-07T11:19:48;6.78;;;2.90;;
58697;SDS011;44475;53.206;-6.106;2024-01-07T11:22:22;6.45;;;3.10;;
58697;SDS011;44475;53.206;-6.106;2024-01-07T11:24:53;6.40;;;3.20;;
58697;SDS011;44475;53.206;-6.106;2024-01-07T11:27:40;9.38;;;3.40;;
58697;SDS011;44475;53.206;-6.106;2024-01-07T11:30:18;6.50;;;3.30;;
58697;SDS011;44475;53.206;-6.106;2024-01-07T11:32:45;5.95;;;3.55;;
58697;SDS011;44475;53.206;-6.106;2024-01-07T11:35:12;6.65;;;3.20;;
58697;SDS011;44475;53.206;-6.106;2024-01-07T11:37:38;7.70;;;3.58;;
58697;SDS011;44475;53.206;-6.106;2024-01-07T11:40:06;9.45;;;3.65;;
58697;SDS011;44475;53.206;-6.106;2024-01-07T11:42:33;6.53;;;3.65;;
58697;SDS011;44475;53.206;-6.106;2024-01-07T11:45:02;7.18;;;3.65;;
58697;SDS011;44475;53.206;-6.106;2024-01-07T11:47:44;6.38;;;3.70;;
58697;SDS011;44475;53.206;-6.106;2024-01-07T11:50:57;8.90;;;4.07;;
58697;SDS011;44475;53.206;-6.106;2024-01-07T11:53:52;7.82;;;4.10;;
58697;SDS011;44475;53.206;-6.106;2024-01-07T11:56:41;8.75;;;4.15;;
58697;SDS011;44475;53.206;-6.106;2024-01-07T11:59:11;6.40;;;4.05;;
58697;SDS011;44475;53.206;-6.106;2024-01-07T12:02:08;9.30;;;4.30;;
58697;SDS011;44475;53.206;-6.106;2024-01-07T12:04:42;10.32;;;4.55;;
58697;SDS011;44475;53.206;-6.106;2024-01-07T12:07:20;20.05;;;4.68;;
58697;SDS011;44475;53.206;-6.106;2024-01-07T12:10:21;12.70;;;4.93;;
58697;SDS011;44475;53.206;-6.106;2024-01-07T12:12:56;9.57;;;5.28;;
58697;SDS011;44475;53.206;-6.106;2024-01-07T12:15:30;21.33;;;5.35;;
58697;SDS011;44475;53.206;-6.106;2024-01-07T12:18:00;13.27;;;5.28;;
58697;SDS011;44475;53.206;-6.106;2024-01-07T12:50:54;16.17;;;5.95;;
58697;SDS011;44475;53.206;-6.106;2024-01-07T12:53:21;17.40;;;6.20;;
58697;SDS011;44475;53.206;-6.106;2024-01-07T12:55:49;13.60;;;6.22;;
58697;SDS011;44475;53.206;-6.106;2024-01-07T12:58:16;15.55;;;6.47;;
58697;SDS011;44475;53.206;-6.106;2024-01-07T13:00:43;23.80;;;6.97;;
58697;SDS011;44475;53.206;-6.106;2024-01-07T13:03:11;19.10;;;6.65;;
58697;SDS011;44475;53.206;-6.106;2024-01-07T13:05:46;15.57;;;6.78;;
58697;SDS011;44475;53.206;-6.106;2024-01-07T13:08:17;11.27;;;6.22;;
58697;SDS011;44475;53.206;-6.106;2024-01-07T13:10:49;15.27;;;7.23;;
58697;SDS011;44475;53.206;-6.106;2024-01-07T13:13:17;16.00;;;7.70;;
58697;SDS011;44475;53.206;-6.106;2024-01-07T13:15:45;16.42;;;8.00;;
58697;SDS011;44475;53.206;-6.106;2024-01-07T13:18:19;21.42;;;8.75;;
58697;SDS011;44475;53.206;-6.106;2024-01-07T13:20:47;17.42;;;9.27;;
58697;SDS011;44475;53.206;-6.106;2024-01-07T13:23:18;17.83;;;10.32;;
58697;SDS011;44475;53.206;-6.106;2024-01-07T13:25:47;19.15;;;12.65;;
58697;SDS011;44475;53.206;-6.106;2024-01-07T13:28:15;28.38;;;19.60;;
58697;SDS011;44475;53.206;-6.106;2024-01-07T13:30:43;29.52;;;20.50;;
58697;SDS011;44475;53.206;-6.106;2024-01-07T13:33:26;29.25;;;20.58;;
58697;SDS011;44475;53.206;-6.106;2024-01-07T13:35:53;26.40;;;19.73;;
58697;SDS011;44475;53.206;-6.106;2024-01-07T13:38:21;32.92;;;22.20;;
58697;SDS011;44475;53.206;-6.106;2024-01-07T13:40:51;31.13;;;21.40;;
58697;SDS011;44475;53.206;-6.106;2024-01-07T13:43:19;37.35;;;21.10;;
58697;SDS011;44475;53.206;-6.106;2024-01-07T13:45:47;35.45;;;20.95;;
58697;SDS011;44475;53.206;-6.106;2024-01-07T13:48:14;39.88;;;20.83;;
58697;SDS011;44475;53.206;-6.106;2024-01-07T13:50:43;29.98;;;20.27;;
58697;SDS011;44475;53.206;-6.106;2024-01-07T13:53:11;31.95;;;19.85;;
58697;SDS011;44475;53.206;-6.106;2024-01-07T13:55:41;38.83;;;20.05;;
58697;SDS011;44475;53.206;-6.106;2024-01-07T13:58:08;38.25;;;19.90;;
58697;SDS011;44475;53.206;-6.106;2024-01-07T14:00:37;34.20;;;18.60;;
58697;SDS011;44475;53.206;-6.106;2024-01-07T14:03:04;26.95;;;18.00;;
58697;SDS011;44475;53.206;-6.106;2024-01-07T14:05:34;26.75;;;18.55;;
58697;SDS011;44475;53.206;-6.106;2024-01-07T14:08:01;25.70;;;17.05;;
58697;SDS011;44475;53.206;-6.106;2024-01-07T14:10:29;27.13;;;17.25;;
58697;SDS011;44475;53.206;-6.106;2024-01-07T14:12:57;24.48;;;16.92;;
58697;SDS011;44475;53.206;-6.106;2024-01-07T14:15:27;27.10;;;16.83;;
58697;SDS011;44475;53.206;-6.106;2024-01-07T14:17:55;22.33;;;16.75;;
58697;SDS011;44475;53.206;-6.106;2024-01-07T14:20:23;21.15;;;16.30;;
58697;SDS011;44475;53.206;-6.106;2024-01-07T14:22:51;20.80;;;16.20;;
58697;SDS011;44475;53.206;-6.106;2024-01-07T14:25:19;28.25;;;16.50;;
58697;SDS011;44475;53.206;-6.106;2024-01-07T14:27:48;23.45;;;16.23;;
58697;SDS011;44475;53.206;-6.106;2024-01-07T15:04:29;59.92;;;9.77;;
58697;SDS011;44475;53.206;-6.106;2024-01-07T15:06:58;33.30;;;9.40;;
58697;SDS011;44475;53.206;-6.106;2024-01-07T15:09:28;37.38;;;9.07;;
58697;SDS011;44475;53.206;-6.106;2024-01-07T15:11:57;38.97;;;8.70;;
58697;SDS011;44475;53.206;-6.106;2024-01-07T15:55:38;20.75;;;6.03;;
58697;SDS011;44475;53.206;-6.106;2024-01-07T15:58:08;18.98;;;5.60;;
58697;SDS011;44475;53.206;-6.106;2024-01-07T16:30:16;13.88;;;4.97;;
58697;SDS011;44475;53.206;-6.106;2024-01-07T16:32:44;14.98;;;5.30;;
58697;SDS011;44475;53.206;-6.106;2024-01-07T16:35:12;10.85;;;4.63;;
58697;SDS011;44475;53.206;-6.106;2024-01-07T16:37:39;11.65;;;4.88;;
58697;SDS011;44475;53.206;-6.106;2024-01-07T16:40:08;14.43;;;5.35;;
58697;SDS011;44475;53.206;-6.106;2024-01-07T16:42:38;21.48;;;5.10;;
58697;SDS011;44475;53.206;-6.106;2024-01-07T16:45:09;7.65;;;4.70;;
58697;SDS011;44475;53.206;-6.106;2024-01-07T16:47:36;11.93;;;4.82;;
58697;SDS011;44475;53.206;-6.106;2024-01-07T16:50:05;13.10;;;5.40;;
58697;SDS011;44475;53.206;-6.106;2024-01-07T16:52:33;15.27;;;5.28;;
58697;SDS011;44475;53.206;-6.106;2024-01-07T16:55:01;17.20;;;5.22;;
58697;SDS011;44475;53.206;-6.106;2024-01-07T16:57:28;28.55;;;6.60;;
58697;SDS011;44475;53.206;-6.106;2024-01-07T16:59:56;22.13;;;5.53;;
58697;SDS011;44475;53.206;-6.106;2024-01-07T17:02:24;28.77;;;6.13;;
58697;SDS011;44475;53.206;-6.106;2024-01-07T17:04:51;21.88;;;6.07;;
58697;SDS011;44475;53.206;-6.106;2024-01-07T17:07:20;22.65;;;6.32;;
58697;SDS011;44475;53.206;-6.106;2024-01-07T17:13:37;23.13;;;7.13;;